sensor_id;sensor_type;location;lat;lon;timestamp;temperature;humidity
39021;DHT22;25188;51.958;5.842;2023-09-07T00:00:35;23.00;73.90
39021;DHT22;25188;51.958;5.842;2023-09-07T00:03:01;22.90;74.00
39021;DHT22;25188;51.958;5.842;2023-09-07T00:05:26;22.90;74.20
39021;DHT22;25188;51.958;5.842;2023-09-07T00:07:52;22.90;74.30
39021;DHT22;25188;51.958;5.842;2023-09-07T00:10:18;22.90;74.50
39021;DHT22;25188;51.958;5.842;2023-09-07T00:12:43;22.70;74.50
39021;DHT22;25188;51.958;5.842;2023-09-07T00:15:09;22.70;74.60
39021;DHT22;25188;51.958;5.842;2023-09-07T00:17:36;22.70;74.70
39021;DHT22;25188;51.958;5.842;2023-09-07T00:20:02;22.70;74.80
39021;DHT22;25188;51.958;5.842;2023-09-07T00:22:39;22.70;75.00
39021;DHT22;25188;51.958;5.842;2023-09-07T00:25:05;22.60;75.00
39021;DHT22;25188;51.958;5.842;2023-09-07T00:27:35;22.60;75.20
39021;DHT22;25188;51.958;5.842;2023-09-07T00:30:01;22.50;75.40
39021;DHT22;25188;51.958;5.842;2023-09-07T00:32:26;22.50;75.60
39021;DHT22;25188;51.958;5.842;2023-09-07T00:34:52;22.50;75.70
39021;DHT22;25188;51.958;5.842;2023-09-07T00:37:17;22.40;75.80
39021;DHT22;25188;51.958;5.842;2023-09-07T00:39:43;22.40;76.00
39021;DHT22;25188;51.958;5.842;2023-09-07T00:42:09;22.40;76.10
39021;DHT22;25188;51.958;5.842;2023-09-07T00:44:34;22.30;76.20
39021;DHT22;25188;51.958;5.842;2023-09-07T00:47:00;22.20;76.30
39021;DHT22;25188;51.958;5.842;2023-09-07T00:49:25;22.20;76.50
39021;DHT22;25188;51.958;5.842;2023-09-07T00:51:52;22.10;76.60
39021;DHT22;25188;51.958;5.842;2023-09-07T00:54:18;22.20;76.80
39021;DHT22;25188;51.958;5.842;2023-09-07T00:56:44;22.10;76.90
39021;DHT22;25188;51.958;5.842;2023-09-07T00:59:11;22.20;77.10
39021;DHT22;25188;51.958;5.842;2023-09-07T01:01:37;22.00;77.30
39021;DHT22;25188;51.958;5.842;2023-09-07T01:04:02;22.00;77.40
39021;DHT22;25188;51.958;5.842;2023-09-07T01:06:39;22.00;77.70
39021;DHT22;25188;51.958;5.842;2023-09-07T01:09:11;21.90;77.90
39021;DHT22;25188;51.958;5.842;2023-09-07T01:11:39;21.90;78.00
39021;DHT22;25188;51.958;5.842;2023-09-07T01:14:05;21.80;78.10
39021;DHT22;25188;51.958;5.842;2023-09-07T01:16:34;21.80;78.30
39021;DHT22;25188;51.958;5.842;2023-09-07T01:19:01;21.80;78.50
39021;DHT22;25188;51.958;5.842;2023-09-07T01:21:34;21.80;78.60
39021;DHT22;25188;51.958;5.842;2023-09-07T01:24:01;21.70;78.60
39021;DHT22;25188;51.958;5.842;2023-09-07T01:26:27;21.70;78.70
39021;DHT22;25188;51.958;5.842;2023-09-07T01:28:53;21.60;78.80
39021;DHT22;25188;51.958;5.842;2023-09-07T01:31:19;21.70;79.00
39021;DHT22;25188;51.958;5.842;2023-09-07T01:33:44;21.60;79.00
39021;DHT22;25188;51.958;5.842;2023-09-07T01:36:10;21.60;79.20
39021;DHT22;25188;51.958;5.842;2023-09-07T01:38:35;21.60;79.30
39021;DHT22;25188;51.958;5.842;2023-09-07T01:41:01;21.40;79.30
39021;DHT22;25188;51.958;5.842;2023-09-07T01:43:27;21.60;79.50
39021;DHT22;25188;51.958;5.842;2023-09-07T01:45:52;21.40;79.50
39021;DHT22;25188;51.958;5.842;2023-09-07T01:48:18;21.30;79.60
39021;DHT22;25188;51.958;5.842;2023-09-07T01:50:43;21.40;79.80
39021;DHT22;25188;51.958;5.842;2023-09-07T01:53:09;21.30;79.90
39021;DHT22;25188;51.958;5.842;2023-09-07T01:55:34;21.30;80.10
39021;DHT22;25188;51.958;5.842;2023-09-07T01:58:00;21.30;80.80
39021;DHT22;25188;51.958;5.842;2023-09-07T02:00:25;21.20;80.30
39021;DHT22;25188;51.958;5.842;2023-09-07T02:02:51;21.20;80.50
39021;DHT22;25188;51.958;5.842;2023-09-07T02:05:17;21.20;80.70
39021;DHT22;25188;51.958;5.842;2023-09-07T02:07:45;21.20;80.90
39021;DHT22;25188;51.958;5.842;2023-09-07T02:10:12;21.20;81.10
39021;DHT22;25188;51.958;5.842;2023-09-07T02:12:37;21.10;81.20
39021;DHT22;25188;51.958;5.842;2023-09-07T02:15:04;21.10;81.30
39021;DHT22;25188;51.958;5.842;2023-09-07T02:17:30;21.00;81.30
39021;DHT22;25188;51.958;5.842;2023-09-07T02:19:56;21.00;81.40
39021;DHT22;25188;51.958;5.842;2023-09-07T02:22:22;21.00;81.50
39021;DHT22;25188;51.958;5.842;2023-09-07T02:24:47;20.90;81.60
39021;DHT22;25188;51.958;5.842;2023-09-07T02:27:13;21.00;81.80
39021;DHT22;25188;51.958;5.842;2023-09-07T02:29:38;20.90;81.90
39021;DHT22;25188;51.958;5.842;2023-09-07T02:32:04;20.80;81.90
39021;DHT22;25188;51.958;5.842;2023-09-07T02:34:30;20.80;82.20
39021;DHT22;25188;51.958;5.842;2023-09-07T02:36:55;20.90;82.40
39021;DHT22;25188;51.958;5.842;2023-09-07T02:39:22;20.70;82.30
39021;DHT22;25188;51.958;5.842;2023-09-07T02:41:52;20.80;82.50
39021;DHT22;25188;51.958;5.842;2023-09-07T02:44:17;20.70;82.50
39021;DHT22;25188;51.958;5.842;2023-09-07T02:46:43;20.60;82.50
39021;DHT22;25188;51.958;5.842;2023-09-07T02:49:08;20.60;82.60
39021;DHT22;25188;51.958;5.842;2023-09-07T02:51:35;20.60;82.80
39021;DHT22;25188;51.958;5.842;2023-09-07T02:54:01;20.60;82.90
39021;DHT22;25188;51.958;5.842;2023-09-07T02:56:27;20.50;83.00
39021;DHT22;25188;51.958;5.842;2023-09-07T02:58:53;20.50;83.10
39021;DHT22;25188;51.958;5.842;2023-09-07T03:01:18;20.50;83.30
39021;DHT22;25188;51.958;5.842;2023-09-07T03:03:46;20.50;83.40
39021;DHT22;25188;51.958;5.842;2023-09-07T03:06:13;20.50;83.50
39021;DHT22;25188;51.958;5.842;2023-09-07T03:08:43;20.40;83.60
39021;DHT22;25188;51.958;5.842;2023-09-07T03:11:09;20.40;83.80
39021;DHT22;25188;51.958;5.842;2023-09-07T03:13:35;20.20;83.70
39021;DHT22;25188;51.958;5.842;2023-09-07T03:16:02;20.40;84.00
39021;DHT22;25188;51.958;5.842;2023-09-07T03:18:28;20.30;84.00
39021;DHT22;25188;51.958;5.842;2023-09-07T03:20:55;20.30;84.20
39021;DHT22;25188;51.958;5.842;2023-09-07T03:23:22;20.20;84.30
39021;DHT22;25188;51.958;5.842;2023-09-07T03:25:48;20.20;84.30
39021;DHT22;25188;51.958;5.842;2023-09-07T03:28:14;20.10;84.40
39021;DHT22;25188;51.958;5.842;2023-09-07T03:30:39;20.20;84.60
39021;DHT22;25188;51.958;5.842;2023-09-07T03:33:06;20.20;84.70
39021;DHT22;25188;51.958;5.842;2023-09-07T03:35:32;20.10;84.70
39021;DHT22;25188;51.958;5.842;2023-09-07T03:37:58;20.20;84.90
39021;DHT22;25188;51.958;5.842;2023-09-07T03:40:23;20.10;84.90
39021;DHT22;25188;51.958;5.842;2023-09-07T03:42:49;20.00;84.90
39021;DHT22;25188;51.958;5.842;2023-09-07T03:45:15;20.10;85.00
39021;DHT22;25188;51.958;5.842;2023-09-07T03:47:41;20.00;85.10
39021;DHT22;25188;51.958;5.842;2023-09-07T03:50:07;19.90;85.10
39021;DHT22;25188;51.958;5.842;2023-09-07T03:52:33;19.90;85.30
39021;DHT22;25188;51.958;5.842;2023-09-07T03:54:59;19.90;85.40
39021;DHT22;25188;51.958;5.842;2023-09-07T03:57:26;19.80;85.40
39021;DHT22;25188;51.958;5.842;2023-09-07T03:59:51;19.90;85.60
39021;DHT22;25188;51.958;5.842;2023-09-07T04:02:17;19.90;85.60
39021;DHT22;25188;51.958;5.842;2023-09-07T04:04:43;19.80;85.60
39021;DHT22;25188;51.958;5.842;2023-09-07T04:07:09;19.80;85.70
39021;DHT22;25188;51.958;5.842;2023-09-07T04:09:35;19.80;85.80
39021;DHT22;25188;51.958;5.842;2023-09-07T04:12:00;19.80;85.80
39021;DHT22;25188;51.958;5.842;2023-09-07T04:14:26;19.80;85.90
39021;DHT22;25188;51.958;5.842;2023-09-07T04:16:53;19.80;86.00
39021;DHT22;25188;51.958;5.842;2023-09-07T04:19:19;19.80;86.00
39021;DHT22;25188;51.958;5.842;2023-09-07T04:21:44;19.70;85.90
39021;DHT22;25188;51.958;5.842;2023-09-07T04:24:10;19.70;85.90
39021;DHT22;25188;51.958;5.842;2023-09-07T04:26:37;19.70;86.00
39021;DHT22;25188;51.958;5.842;2023-09-07T04:29:03;19.60;86.00
39021;DHT22;25188;51.958;5.842;2023-09-07T04:31:29;19.70;86.20
39021;DHT22;25188;51.958;5.842;2023-09-07T04:33:55;19.60;86.20
39021;DHT22;25188;51.958;5.842;2023-09-07T04:36:20;19.50;86.30
39021;DHT22;25188;51.958;5.842;2023-09-07T04:38:46;19.50;86.40
39021;DHT22;25188;51.958;5.842;2023-09-07T04:41:12;19.60;86.50
39021;DHT22;25188;51.958;5.842;2023-09-07T04:43:39;19.60;86.60
39021;DHT22;25188;51.958;5.842;2023-09-07T04:46:06;19.50;86.70
39021;DHT22;25188;51.958;5.842;2023-09-07T04:48:32;19.60;86.70
39021;DHT22;25188;51.958;5.842;2023-09-07T04:51:03;19.50;86.70
39021;DHT22;25188;51.958;5.842;2023-09-07T04:53:30;19.50;86.80
39021;DHT22;25188;51.958;5.842;2023-09-07T04:55:59;19.40;86.80
39021;DHT22;25188;51.958;5.842;2023-09-07T04:58:25;19.40;86.90
39021;DHT22;25188;51.958;5.842;2023-09-07T05:00:51;19.40;86.90
39021;DHT22;25188;51.958;5.842;2023-09-07T05:03:17;19.40;87.00
39021;DHT22;25188;51.958;5.842;2023-09-07T05:05:43;19.40;87.10
39021;DHT22;25188;51.958;5.842;2023-09-07T05:08:11;19.30;87.10
39021;DHT22;25188;51.958;5.842;2023-09-07T05:10:38;19.30;87.20
39021;DHT22;25188;51.958;5.842;2023-09-07T05:13:03;19.30;87.40
39021;DHT22;25188;51.958;5.842;2023-09-07T05:15:29;19.30;87.50
39021;DHT22;25188;51.958;5.842;2023-09-07T05:17:55;19.20;87.50
39021;DHT22;25188;51.958;5.842;2023-09-07T05:20:21;19.20;87.60
39021;DHT22;25188;51.958;5.842;2023-09-07T05:22:47;19.20;87.80
39021;DHT22;25188;51.958;5.842;2023-09-07T05:25:13;19.20;87.90
39021;DHT22;25188;51.958;5.842;2023-09-07T05:27:38;19.10;88.00
39021;DHT22;25188;51.958;5.842;2023-09-07T05:30:05;19.10;88.10
39021;DHT22;25188;51.958;5.842;2023-09-07T05:32:31;19.20;88.30
39021;DHT22;25188;51.958;5.842;2023-09-07T05:34:57;19.20;88.40
39021;DHT22;25188;51.958;5.842;2023-09-07T05:37:22;19.10;88.40
39021;DHT22;25188;51.958;5.842;2023-09-07T05:39:48;19.10;88.40
39021;DHT22;25188;51.958;5.842;2023-09-07T05:42:16;19.20;88.50
39021;DHT22;25188;51.958;5.842;2023-09-07T05:44:42;19.20;88.60
39021;DHT22;25188;51.958;5.842;2023-09-07T05:47:08;19.20;88.60
39021;DHT22;25188;51.958;5.842;2023-09-07T05:49:33;19.20;88.70
39021;DHT22;25188;51.958;5.842;2023-09-07T05:51:59;19.30;88.80
39021;DHT22;25188;51.958;5.842;2023-09-07T05:54:24;19.30;88.90
39021;DHT22;25188;51.958;5.842;2023-09-07T05:56:50;19.30;88.90
39021;DHT22;25188;51.958;5.842;2023-09-07T05:59:15;19.30;88.90
39021;DHT22;25188;51.958;5.842;2023-09-07T06:01:41;19.30;88.90
39021;DHT22;25188;51.958;5.842;2023-09-07T06:04:07;19.30;88.90
39021;DHT22;25188;51.958;5.842;2023-09-07T06:06:33;19.40;88.90
39021;DHT22;25188;51.958;5.842;2023-09-07T06:08:58;19.30;88.90
39021;DHT22;25188;51.958;5.842;2023-09-07T06:11:25;19.30;88.90
39021;DHT22;25188;51.958;5.842;2023-09-07T06:13:50;19.40;88.90
39021;DHT22;25188;51.958;5.842;2023-09-07T06:16:16;19.50;89.00
39021;DHT22;25188;51.958;5.842;2023-09-07T06:18:42;19.50;89.00
39021;DHT22;25188;51.958;5.842;2023-09-07T06:21:08;19.50;89.00
39021;DHT22;25188;51.958;5.842;2023-09-07T06:23:33;19.60;89.00
39021;DHT22;25188;51.958;5.842;2023-09-07T06:25:59;19.60;89.00
39021;DHT22;25188;51.958;5.842;2023-09-07T06:28:25;19.60;88.90
39021;DHT22;25188;51.958;5.842;2023-09-07T06:30:50;19.70;88.90
39021;DHT22;25188;51.958;5.842;2023-09-07T06:33:16;19.60;88.90
39021;DHT22;25188;51.958;5.842;2023-09-07T06:35:42;19.70;88.90
39021;DHT22;25188;51.958;5.842;2023-09-07T06:38:08;19.80;88.90
39021;DHT22;25188;51.958;5.842;2023-09-07T06:40:33;19.70;88.80
39021;DHT22;25188;51.958;5.842;2023-09-07T06:42:59;19.80;88.80
39021;DHT22;25188;51.958;5.842;2023-09-07T06:45:25;19.80;88.70
39021;DHT22;25188;51.958;5.842;2023-09-07T06:47:51;19.80;88.60
39021;DHT22;25188;51.958;5.842;2023-09-07T06:50:17;19.90;88.70
39021;DHT22;25188;51.958;5.842;2023-09-07T06:52:42;19.90;88.60
39021;DHT22;25188;51.958;5.842;2023-09-07T06:55:08;20.00;88.60
39021;DHT22;25188;51.958;5.842;2023-09-07T06:57:34;20.00;88.50
39021;DHT22;25188;51.958;5.842;2023-09-07T07:00:01;20.00;88.30
39021;DHT22;25188;51.958;5.842;2023-09-07T07:02:26;20.00;88.20
39021;DHT22;25188;51.958;5.842;2023-09-07T07:04:52;20.10;88.00
39021;DHT22;25188;51.958;5.842;2023-09-07T07:07:18;20.30;88.00
39021;DHT22;25188;51.958;5.842;2023-09-07T07:09:43;20.10;87.70
39021;DHT22;25188;51.958;5.842;2023-09-07T07:12:09;20.20;87.60
39021;DHT22;25188;51.958;5.842;2023-09-07T07:14:35;20.30;87.50
39021;DHT22;25188;51.958;5.842;2023-09-07T07:17:00;20.20;87.30
39021;DHT22;25188;51.958;5.842;2023-09-07T07:19:30;20.30;87.10
39021;DHT22;25188;51.958;5.842;2023-09-07T07:21:56;20.30;87.00
39021;DHT22;25188;51.958;5.842;2023-09-07T07:24:21;20.40;86.90
39021;DHT22;25188;51.958;5.842;2023-09-07T07:26:47;20.50;86.90
39021;DHT22;25188;51.958;5.842;2023-09-07T07:29:13;20.50;86.60
39021;DHT22;25188;51.958;5.842;2023-09-07T07:31:39;20.60;86.50
39021;DHT22;25188;51.958;5.842;2023-09-07T07:34:04;20.60;86.30
39021;DHT22;25188;51.958;5.842;2023-09-07T07:36:30;20.60;86.20
39021;DHT22;25188;51.958;5.842;2023-09-07T07:38:56;20.70;86.10
39021;DHT22;25188;51.958;5.842;2023-09-07T07:41:22;20.70;85.80
39021;DHT22;25188;51.958;5.842;2023-09-07T07:43:47;20.80;85.60
39021;DHT22;25188;51.958;5.842;2023-09-07T07:46:13;20.80;85.30
39021;DHT22;25188;51.958;5.842;2023-09-07T07:48:41;20.90;85.20
39021;DHT22;25188;51.958;5.842;2023-09-07T07:51:07;20.90;85.00
39021;DHT22;25188;51.958;5.842;2023-09-07T07:53:34;21.00;84.80
39021;DHT22;25188;51.958;5.842;2023-09-07T07:56:00;21.00;84.70
39021;DHT22;25188;51.958;5.842;2023-09-07T07:58:25;21.10;84.60
39021;DHT22;25188;51.958;5.842;2023-09-07T08:00:51;21.10;84.40
39021;DHT22;25188;51.958;5.842;2023-09-07T08:03:17;21.20;84.20
39021;DHT22;25188;51.958;5.842;2023-09-07T08:05:43;21.20;84.00
39021;DHT22;25188;51.958;5.842;2023-09-07T08:08:09;21.30;83.80
39021;DHT22;25188;51.958;5.842;2023-09-07T08:10:35;21.40;83.70
39021;DHT22;25188;51.958;5.842;2023-09-07T08:13:02;21.40;83.60
39021;DHT22;25188;51.958;5.842;2023-09-07T08:15:28;21.50;83.50
39021;DHT22;25188;51.958;5.842;2023-09-07T08:17:54;21.50;83.30
39021;DHT22;25188;51.958;5.842;2023-09-07T08:20:20;21.60;83.10
39021;DHT22;25188;51.958;5.842;2023-09-07T08:22:46;21.70;82.90
39021;DHT22;25188;51.958;5.842;2023-09-07T08:25:13;21.70;82.70
39021;DHT22;25188;51.958;5.842;2023-09-07T08:27:42;21.80;82.60
39021;DHT22;25188;51.958;5.842;2023-09-07T08:30:13;21.90;82.50
39021;DHT22;25188;51.958;5.842;2023-09-07T08:32:41;21.90;82.30
39021;DHT22;25188;51.958;5.842;2023-09-07T08:35:08;22.00;82.10
39021;DHT22;25188;51.958;5.842;2023-09-07T08:37:34;22.10;81.90
39021;DHT22;25188;51.958;5.842;2023-09-07T08:40:00;22.20;81.70
39021;DHT22;25188;51.958;5.842;2023-09-07T08:42:26;22.20;81.60
39021;DHT22;25188;51.958;5.842;2023-09-07T08:44:53;22.30;81.40
39021;DHT22;25188;51.958;5.842;2023-09-07T08:47:24;22.30;81.30
39021;DHT22;25188;51.958;5.842;2023-09-07T08:49:51;22.50;81.30
39021;DHT22;25188;51.958;5.842;2023-09-07T08:52:17;22.60;81.20
39021;DHT22;25188;51.958;5.842;2023-09-07T08:54:44;22.60;81.10
39021;DHT22;25188;51.958;5.842;2023-09-07T08:57:11;22.70;80.80
39021;DHT22;25188;51.958;5.842;2023-09-07T08:59:37;22.80;80.60
39021;DHT22;25188;51.958;5.842;2023-09-07T09:02:02;22.90;80.20
39021;DHT22;25188;51.958;5.842;2023-09-07T09:04:30;23.00;79.90
39021;DHT22;25188;51.958;5.842;2023-09-07T09:06:56;23.10;79.40
39021;DHT22;25188;51.958;5.842;2023-09-07T09:09:23;23.20;79.10
39021;DHT22;25188;51.958;5.842;2023-09-07T09:11:50;23.20;78.70
39021;DHT22;25188;51.958;5.842;2023-09-07T09:14:19;23.40;78.50
39021;DHT22;25188;51.958;5.842;2023-09-07T09:16:54;23.50;78.00
39021;DHT22;25188;51.958;5.842;2023-09-07T09:19:33;23.60;77.10
39021;DHT22;25188;51.958;5.842;2023-09-07T09:22:00;23.70;76.40
39021;DHT22;25188;51.958;5.842;2023-09-07T09:24:25;23.80;76.00
39021;DHT22;25188;51.958;5.842;2023-09-07T09:26:52;23.90;75.60
39021;DHT22;25188;51.958;5.842;2023-09-07T09:29:22;24.00;75.30
39021;DHT22;25188;51.958;5.842;2023-09-07T09:31:48;24.00;74.80
39021;DHT22;25188;51.958;5.842;2023-09-07T09:34:14;24.20;74.60
39021;DHT22;25188;51.958;5.842;2023-09-07T09:36:42;24.30;74.50
39021;DHT22;25188;51.958;5.842;2023-09-07T09:39:08;24.30;74.30
39021;DHT22;25188;51.958;5.842;2023-09-07T09:41:35;24.40;74.20
39021;DHT22;25188;51.958;5.842;2023-09-07T09:44:04;24.50;74.00
39021;DHT22;25188;51.958;5.842;2023-09-07T09:46:32;24.60;73.60
39021;DHT22;25188;51.958;5.842;2023-09-07T09:48:57;24.60;73.50
39021;DHT22;25188;51.958;5.842;2023-09-07T09:51:24;24.70;73.40
39021;DHT22;25188;51.958;5.842;2023-09-07T09:53:50;24.80;73.30
39021;DHT22;25188;51.958;5.842;2023-09-07T09:56:17;24.90;73.00
39021;DHT22;25188;51.958;5.842;2023-09-07T09:58:42;25.00;72.50
39021;DHT22;25188;51.958;5.842;2023-09-07T10:01:09;25.10;72.00
39021;DHT22;25188;51.958;5.842;2023-09-07T10:03:42;25.20;72.00
39021;DHT22;25188;51.958;5.842;2023-09-07T10:06:28;25.30;71.80
39021;DHT22;25188;51.958;5.842;2023-09-07T10:09:01;25.40;71.60
39021;DHT22;25188;51.958;5.842;2023-09-07T10:11:37;25.60;71.70
39021;DHT22;25188;51.958;5.842;2023-09-07T10:14:04;25.70;71.50
39021;DHT22;25188;51.958;5.842;2023-09-07T10:16:50;25.80;71.40
39021;DHT22;25188;51.958;5.842;2023-09-07T10:19:20;26.00;70.80
39021;DHT22;25188;51.958;5.842;2023-09-07T10:21:46;26.20;70.80
39021;DHT22;25188;51.958;5.842;2023-09-07T10:24:23;26.30;70.40
39021;DHT22;25188;51.958;5.842;2023-09-07T10:27:16;26.50;69.80
39021;DHT22;25188;51.958;5.842;2023-09-07T10:29:51;26.70;69.30
39021;DHT22;25188;51.958;5.842;2023-09-07T10:32:20;26.90;69.30
39021;DHT22;25188;51.958;5.842;2023-09-07T10:34:46;27.10;68.90
39021;DHT22;25188;51.958;5.842;2023-09-07T10:37:12;27.30;68.20
39021;DHT22;25188;51.958;5.842;2023-09-07T10:39:39;27.50;67.60
39021;DHT22;25188;51.958;5.842;2023-09-07T10:42:05;27.70;67.00
39021;DHT22;25188;51.958;5.842;2023-09-07T10:44:31;27.90;66.40
39021;DHT22;25188;51.958;5.842;2023-09-07T10:46:57;28.20;65.90
39021;DHT22;25188;51.958;5.842;2023-09-07T10:49:24;28.40;65.50
39021;DHT22;25188;51.958;5.842;2023-09-07T10:51:50;28.60;64.90
39021;DHT22;25188;51.958;5.842;2023-09-07T10:56:43;29.00;63.50
39021;DHT22;25188;51.958;5.842;2023-09-07T10:59:09;29.20;62.70
39021;DHT22;25188;51.958;5.842;2023-09-07T11:01:34;29.40;62.10
39021;DHT22;25188;51.958;5.842;2023-09-07T11:04:00;29.70;61.40
39021;DHT22;25188;51.958;5.842;2023-09-07T11:06:26;29.80;60.70
39021;DHT22;25188;51.958;5.842;2023-09-07T11:08:52;30.00;60.10
39021;DHT22;25188;51.958;5.842;2023-09-07T11:11:17;30.30;59.60
39021;DHT22;25188;51.958;5.842;2023-09-07T11:13:43;30.40;59.20
39021;DHT22;25188;51.958;5.842;2023-09-07T11:16:09;30.70;59.00
39021;DHT22;25188;51.958;5.842;2023-09-07T11:18:35;30.90;58.50
39021;DHT22;25188;51.958;5.842;2023-09-07T11:21:01;31.20;58.00
39021;DHT22;25188;51.958;5.842;2023-09-07T11:23:30;31.40;57.50
39021;DHT22;25188;51.958;5.842;2023-09-07T11:26:07;31.60;57.10
39021;DHT22;25188;51.958;5.842;2023-09-07T11:28:33;31.90;56.70
39021;DHT22;25188;51.958;5.842;2023-09-07T11:31:00;32.10;56.30
39021;DHT22;25188;51.958;5.842;2023-09-07T11:33:26;32.30;55.80
39021;DHT22;25188;51.958;5.842;2023-09-07T11:35:52;32.60;55.50
39021;DHT22;25188;51.958;5.842;2023-09-07T11:38:21;32.80;55.00
39021;DHT22;25188;51.958;5.842;2023-09-07T11:40:47;33.10;54.50
39021;DHT22;25188;51.958;5.842;2023-09-07T11:43:14;33.40;54.60
39021;DHT22;25188;51.958;5.842;2023-09-07T11:45:41;33.60;53.50
39021;DHT22;25188;51.958;5.842;2023-09-07T11:48:07;33.80;53.10
39021;DHT22;25188;51.958;5.842;2023-09-07T11:50:36;34.00;52.70
39021;DHT22;25188;51.958;5.842;2023-09-07T11:53:02;34.20;52.00
39021;DHT22;25188;51.958;5.842;2023-09-07T11:55:27;34.40;52.10
39021;DHT22;25188;51.958;5.842;2023-09-07T11:57:53;34.60;51.00
39021;DHT22;25188;51.958;5.842;2023-09-07T12:00:19;34.70;50.60
39021;DHT22;25188;51.958;5.842;2023-09-07T12:02:45;34.90;50.40
39021;DHT22;25188;51.958;5.842;2023-09-07T12:05:11;35.10;50.00
39021;DHT22;25188;51.958;5.842;2023-09-07T12:07:40;35.30;49.80
39021;DHT22;25188;51.958;5.842;2023-09-07T12:10:05;35.50;49.60
39021;DHT22;25188;51.958;5.842;2023-09-07T12:12:38;35.80;49.30
39021;DHT22;25188;51.958;5.842;2023-09-07T12:15:04;36.00;48.90
39021;DHT22;25188;51.958;5.842;2023-09-07T12:17:30;36.20;48.50
39021;DHT22;25188;51.958;5.842;2023-09-07T12:19:56;36.40;48.20
39021;DHT22;25188;51.958;5.842;2023-09-07T12:22:22;36.60;47.80
39021;DHT22;25188;51.958;5.842;2023-09-07T12:24:47;36.70;47.30
39021;DHT22;25188;51.958;5.842;2023-09-07T12:27:13;36.90;46.90
39021;DHT22;25188;51.958;5.842;2023-09-07T12:29:39;37.10;46.70
39021;DHT22;25188;51.958;5.842;2023-09-07T12:32:05;37.30;46.40
39021;DHT22;25188;51.958;5.842;2023-09-07T12:34:31;37.50;46.10
39021;DHT22;25188;51.958;5.842;2023-09-07T12:36:56;37.60;45.70
39021;DHT22;25188;51.958;5.842;2023-09-07T12:39:22;37.80;46.20
39021;DHT22;25188;51.958;5.842;2023-09-07T12:41:47;38.00;45.30
39021;DHT22;25188;51.958;5.842;2023-09-07T12:44:13;38.20;45.10
39021;DHT22;25188;51.958;5.842;2023-09-07T12:46:38;38.30;44.80
39021;DHT22;25188;51.958;5.842;2023-09-07T12:49:04;38.60;44.80
39021;DHT22;25188;51.958;5.842;2023-09-07T12:51:30;38.70;44.40
39021;DHT22;25188;51.958;5.842;2023-09-07T12:53:56;38.90;44.10
39021;DHT22;25188;51.958;5.842;2023-09-07T12:56:21;39.10;43.90
39021;DHT22;25188;51.958;5.842;2023-09-07T12:58:47;39.20;43.70
39021;DHT22;25188;51.958;5.842;2023-09-07T13:01:14;39.40;43.60
39021;DHT22;25188;51.958;5.842;2023-09-07T13:03:41;39.50;43.30
39021;DHT22;25188;51.958;5.842;2023-09-07T13:06:07;39.60;42.90
39021;DHT22;25188;51.958;5.842;2023-09-07T13:08:32;39.80;42.70
39021;DHT22;25188;51.958;5.842;2023-09-07T13:10:58;39.90;42.40
39021;DHT22;25188;51.958;5.842;2023-09-07T13:13:24;40.00;42.00
39021;DHT22;25188;51.958;5.842;2023-09-07T13:15:57;40.10;41.80
39021;DHT22;25188;51.958;5.842;2023-09-07T13:18:23;40.30;41.80
39021;DHT22;25188;51.958;5.842;2023-09-07T13:20:50;40.50;41.60
39021;DHT22;25188;51.958;5.842;2023-09-07T13:23:17;40.70;41.50
39021;DHT22;25188;51.958;5.842;2023-09-07T13:25:43;40.80;41.40
39021;DHT22;25188;51.958;5.842;2023-09-07T13:28:08;41.00;41.40
39021;DHT22;25188;51.958;5.842;2023-09-07T13:30:34;41.00;41.30
39021;DHT22;25188;51.958;5.842;2023-09-07T13:33:00;41.20;41.10
39021;DHT22;25188;51.958;5.842;2023-09-07T13:35:26;41.30;40.90
39021;DHT22;25188;51.958;5.842;2023-09-07T13:37:51;41.50;41.40
39021;DHT22;25188;51.958;5.842;2023-09-07T13:40:17;41.60;40.40
39021;DHT22;25188;51.958;5.842;2023-09-07T13:42:45;41.70;40.20
39021;DHT22;25188;51.958;5.842;2023-09-07T13:45:10;41.80;40.00
39021;DHT22;25188;51.958;5.842;2023-09-07T13:47:36;42.00;39.90
39021;DHT22;25188;51.958;5.842;2023-09-07T13:50:02;42.00;40.40
39021;DHT22;25188;51.958;5.842;2023-09-07T13:52:28;42.10;39.50
39021;DHT22;25188;51.958;5.842;2023-09-07T13:54:54;42.20;39.40
39021;DHT22;25188;51.958;5.842;2023-09-07T13:57:19;42.30;39.30
39021;DHT22;25188;51.958;5.842;2023-09-07T13:59:45;42.40;39.20
39021;DHT22;25188;51.958;5.842;2023-09-07T14:02:10;42.50;39.00
39021;DHT22;25188;51.958;5.842;2023-09-07T14:04:36;42.50;38.80
39021;DHT22;25188;51.958;5.842;2023-09-07T14:07:01;42.50;38.60
39021;DHT22;25188;51.958;5.842;2023-09-07T14:09:27;42.50;38.60
39021;DHT22;25188;51.958;5.842;2023-09-07T14:11:52;42.50;38.60
39021;DHT22;25188;51.958;5.842;2023-09-07T14:14:18;42.60;38.70
39021;DHT22;25188;51.958;5.842;2023-09-07T14:16:43;42.60;38.60
39021;DHT22;25188;51.958;5.842;2023-09-07T14:19:10;42.80;38.60
39021;DHT22;25188;51.958;5.842;2023-09-07T14:21:35;42.90;38.40
39021;DHT22;25188;51.958;5.842;2023-09-07T14:24:01;43.00;38.20
39021;DHT22;25188;51.958;5.842;2023-09-07T14:26:29;43.00;37.90
39021;DHT22;25188;51.958;5.842;2023-09-07T14:28:55;43.00;37.90
39021;DHT22;25188;51.958;5.842;2023-09-07T14:31:20;43.10;37.90
39021;DHT22;25188;51.958;5.842;2023-09-07T14:33:46;43.20;37.80
39021;DHT22;25188;51.958;5.842;2023-09-07T14:36:11;43.30;37.70
39021;DHT22;25188;51.958;5.842;2023-09-07T14:38:37;43.30;37.60
39021;DHT22;25188;51.958;5.842;2023-09-07T14:41:08;43.30;37.60
39021;DHT22;25188;51.958;5.842;2023-09-07T14:43:43;43.30;37.50
39021;DHT22;25188;51.958;5.842;2023-09-07T14:46:08;43.30;37.40
39021;DHT22;25188;51.958;5.842;2023-09-07T14:48:34;43.40;37.30
39021;DHT22;25188;51.958;5.842;2023-09-07T14:50:59;43.40;37.30
39021;DHT22;25188;51.958;5.842;2023-09-07T14:53:25;43.40;37.20
39021;DHT22;25188;51.958;5.842;2023-09-07T14:55:50;43.40;37.30
39021;DHT22;25188;51.958;5.842;2023-09-07T14:58:16;43.40;37.20
39021;DHT22;25188;51.958;5.842;2023-09-07T15:00:42;43.40;37.10
39021;DHT22;25188;51.958;5.842;2023-09-07T15:03:07;43.40;37.10
39021;DHT22;25188;51.958;5.842;2023-09-07T15:05:33;43.50;37.20
39021;DHT22;25188;51.958;5.842;2023-09-07T15:07:59;43.50;37.10
39021;DHT22;25188;51.958;5.842;2023-09-07T15:10:28;43.50;37.10
39021;DHT22;25188;51.958;5.842;2023-09-07T15:12:54;43.50;37.00
39021;DHT22;25188;51.958;5.842;2023-09-07T15:15:20;43.50;37.00
39021;DHT22;25188;51.958;5.842;2023-09-07T15:17:48;43.60;37.00
39021;DHT22;25188;51.958;5.842;2023-09-07T15:20:14;43.60;37.00
39021;DHT22;25188;51.958;5.842;2023-09-07T15:22:40;43.60;36.90
39021;DHT22;25188;51.958;5.842;2023-09-07T15:25:05;43.60;36.90
39021;DHT22;25188;51.958;5.842;2023-09-07T15:27:31;43.50;37.10